sensor_id;sensor_type;location;lat;lon;timestamp;pressure;altitude;pressure_sealevel;temperature;humidity
8049;BME280;20935;42.660;23.342;2023-01-27T00:00:37;93909.97;;;1.04;100.00
8049;BME280;20935;42.660;23.342;2023-01-27T00:03:05;93912.69;;;0.85;100.00
8049;BME280;20935;42.660;23.342;2023-01-27T00:05:32;93916.91;;;0.89;100.00
8049;BME280;20935;42.660;23.342;2023-01-27T00:07:59;93907.59;;;1.48;100.00
8049;BME280;20935;42.660;23.342;2023-01-27T00:10:26;93907.13;;;1.39;100.00
8049;BME280;20935;42.660;23.342;2023-01-27T00:12:53;93902.59;;;1.39;100.00
8049;BME280;20935;42.660;23.342;2023-01-27T00:15:54;93895.22;;;1.52;100.00
8049;BME280;20935;42.660;23.342;2023-01-27T00:18:21;93904.19;;;1.74;100.00
8049;BME280;20935;42.660;23.342;2023-01-27T00:20:48;93897.66;;;1.94;100.00
8049;BME280;20935;42.660;23.342;2023-01-27T00:23:32;93885.47;;;1.82;100.00
8049;BME280;20935;42.660;23.342;2023-01-27T00:26:18;93873.38;;;1.81;100.00
8049;BME280;20935;42.660;23.342;2023-01-27T00:28:47;93881.22;;;1.48;100.00
8049;BME280;20935;42.660;23.342;2023-01-27T00:31:16;93878.09;;;1.39;100.00
8049;BME280;20935;42.660;23.342;2023-01-27T00:34:01;93876.31;;;1.20;100.00
8049;BME280;20935;42.660;23.342;2023-01-27T00:36:34;93888.16;;;1.30;100.00
8049;BME280;20935;42.660;23.342;2023-01-27T00:39:04;93884.44;;;1.08;100.00
8049;BME280;20935;42.660;23.342;2023-01-27T00:41:32;93878.81;;;1.36;100.00
8049;BME280;20935;42.660;23.342;2023-01-27T00:43:59;93881.94;;;1.45;100.00
8049;BME280;20935;42.660;23.342;2023-01-27T00:46:31;93872.06;;;1.38;100.00
8049;BME280;20935;42.660;23.342;2023-01-27T00:48:58;93891.69;;;1.15;100.00
8049;BME280;20935;42.660;23.342;2023-01-27T00:51:25;93898.44;;;1.38;100.00
8049;BME280;20935;42.660;23.342;2023-01-27T00:53:54;93893.00;;;1.54;100.00
8049;BME280;20935;42.660;23.342;2023-01-27T00:56:21;93892.41;;;1.68;100.00
8049;BME280;20935;42.660;23.342;2023-01-27T00:58:51;93883.47;;;1.46;100.00
8049;BME280;20935;42.660;23.342;2023-01-27T01:01:18;93888.59;;;1.62;100.00
8049;BME280;20935;42.660;23.342;2023-01-27T01:03:46;93896.81;;;1.30;100.00
8049;BME280;20935;42.660;23.342;2023-01-27T01:06:17;93886.28;;;1.30;100.00
8049;BME280;20935;42.660;23.342;2023-01-27T01:08:44;93881.72;;;1.57;100.00
8049;BME280;20935;42.660;23.342;2023-01-27T01:11:13;93883.59;;;1.57;100.00
8049;BME280;20935;42.660;23.342;2023-01-27T01:13:44;93881.06;;;1.64;100.00
8049;BME280;20935;42.660;23.342;2023-01-27T01:16:13;93877.97;;;1.88;100.00
8049;BME280;20935;42.660;23.342;2023-01-27T01:18:41;93888.25;;;1.97;100.00
8049;BME280;20935;42.660;23.342;2023-01-27T01:21:10;93886.84;;;2.03;100.00
8049;BME280;20935;42.660;23.342;2023-01-27T01:23:41;93886.59;;;2.15;100.00
8049;BME280;20935;42.660;23.342;2023-01-27T01:26:12;93880.56;;;2.14;100.00
8049;BME280;20935;42.660;23.342;2023-01-27T01:28:39;93877.53;;;2.16;100.00
8049;BME280;20935;42.660;23.342;2023-01-27T01:31:09;93884.94;;;2.03;100.00
8049;BME280;20935;42.660;23.342;2023-01-27T01:33:36;93884.59;;;2.05;100.00
8049;BME280;20935;42.660;23.342;2023-01-27T01:36:04;93891.44;;;1.79;100.00
8049;BME280;20935;42.660;23.342;2023-01-27T01:38:33;93897.72;;;1.41;100.00
8049;BME280;20935;42.660;23.342;2023-01-27T01:41:03;93895.44;;;1.40;100.00
8049;BME280;20935;42.660;23.342;2023-01-27T01:43:32;93904.53;;;1.42;100.00
8049;BME280;20935;42.660;23.342;2023-01-27T01:45:59;93906.75;;;1.67;100.00
8049;BME280;20935;42.660;23.342;2023-01-27T01:48:33;93895.78;;;1.65;100.00
8049;BME280;20935;42.660;23.342;2023-01-27T01:51:05;93895.56;;;1.47;100.00
8049;BME280;20935;42.660;23.342;2023-01-27T01:53:40;93885.06;;;1.51;100.00
8049;BME280;20935;42.660;23.342;2023-01-27T01:56:12;93880.25;;;1.60;100.00
8049;BME280;20935;42.660;23.342;2023-01-27T01:58:41;93877.63;;;1.89;100.00
8049;BME280;20935;42.660;23.342;2023-01-27T02:01:08;93872.56;;;1.48;100.00
8049;BME280;20935;42.660;23.342;2023-01-27T02:03:36;93863.84;;;1.17;100.00
8049;BME280;20935;42.660;23.342;2023-01-27T02:06:05;93853.13;;;1.59;100.00
8049;BME280;20935;42.660;23.342;2023-01-27T02:08:36;93853.06;;;1.26;100.00
8049;BME280;20935;42.660;23.342;2023-01-27T02:11:05;93850.66;;;1.43;100.00
8049;BME280;20935;42.660;23.342;2023-01-27T02:13:33;93836.22;;;1.34;100.00
8049;BME280;20935;42.660;23.342;2023-01-27T02:16:00;93833.72;;;1.45;100.00
8049;BME280;20935;42.660;23.342;2023-01-27T02:18:27;93821.84;;;1.61;100.00
8049;BME280;20935;42.660;23.342;2023-01-27T02:20:55;93825.56;;;1.57;100.00
8049;BME280;20935;42.660;23.342;2023-01-27T02:23:41;93818.81;;;1.29;100.00
8049;BME280;20935;42.660;23.342;2023-01-27T02:26:15;93820.91;;;1.43;100.00
8049;BME280;20935;42.660;23.342;2023-01-27T02:28:44;93829.44;;;1.63;100.00
8049;BME280;20935;42.660;23.342;2023-01-27T02:31:14;93821.78;;;1.54;100.00
8049;BME280;20935;42.660;23.342;2023-01-27T02:33:42;93828.00;;;1.39;100.00
8049;BME280;20935;42.660;23.342;2023-01-27T02:36:13;93817.44;;;1.39;100.00
8049;BME280;20935;42.660;23.342;2023-01-27T02:38:44;93826.44;;;1.08;100.00
8049;BME280;20935;42.660;23.342;2023-01-27T02:41:21;93819.50;;;0.97;100.00
8049;BME280;20935;42.660;23.342;2023-01-27T02:43:51;93817.41;;;1.09;100.00
8049;BME280;20935;42.660;23.342;2023-01-27T02:46:21;93824.22;;;1.10;100.00
8049;BME280;20935;42.660;23.342;2023-01-27T02:48:48;93827.41;;;1.23;100.00
8049;BME280;20935;42.660;23.342;2023-01-27T02:51:14;93837.38;;;1.36;100.00
8049;BME280;20935;42.660;23.342;2023-01-27T02:53:43;93840.88;;;1.18;100.00
8049;BME280;20935;42.660;23.342;2023-01-27T02:56:11;93843.38;;;1.33;100.00
8049;BME280;20935;42.660;23.342;2023-01-27T02:58:39;93838.47;;;1.35;100.00
8049;BME280;20935;42.660;23.342;2023-01-27T03:01:06;93834.66;;;1.03;100.00
8049;BME280;20935;42.660;23.342;2023-01-27T03:03:34;93837.22;;;1.26;100.00
8049;BME280;20935;42.660;23.342;2023-01-27T03:06:01;93819.31;;;1.38;100.00
8049;BME280;20935;42.660;23.342;2023-01-27T03:08:28;93822.63;;;1.62;100.00
8049;BME280;20935;42.660;23.342;2023-01-27T03:10:57;93825.69;;;1.67;100.00
8049;BME280;20935;42.660;23.342;2023-01-27T03:13:24;93812.09;;;1.35;100.00
8049;BME280;20935;42.660;23.342;2023-01-27T03:15:57;93810.16;;;1.59;100.00
8049;BME280;20935;42.660;23.342;2023-01-27T03:18:41;93803.44;;;1.65;100.00
8049;BME280;20935;42.660;23.342;2023-01-27T03:21:15;93798.53;;;1.33;100.00
8049;BME280;20935;42.660;23.342;2023-01-27T03:23:45;93801.00;;;1.19;100.00
8049;BME280;20935;42.660;23.342;2023-01-27T03:26:13;93794.31;;;1.29;100.00
8049;BME280;20935;42.660;23.342;2023-01-27T03:28:40;93789.56;;;1.38;100.00
8049;BME280;20935;42.660;23.342;2023-01-27T03:31:13;93792.38;;;0.96;100.00
8049;BME280;20935;42.660;23.342;2023-01-27T03:33:46;93786.69;;;1.20;100.00
8049;BME280;20935;42.660;23.342;2023-01-27T03:36:13;93772.34;;;1.18;100.00
8049;BME280;20935;42.660;23.342;2023-01-27T03:39:00;93771.31;;;1.26;100.00
8049;BME280;20935;42.660;23.342;2023-01-27T03:41:44;93771.94;;;1.46;100.00
8049;BME280;20935;42.660;23.342;2023-01-27T03:44:28;93756.78;;;1.39;100.00
8049;BME280;20935;42.660;23.342;2023-01-27T03:47:14;93751.44;;;1.35;100.00
8049;BME280;20935;42.660;23.342;2023-01-27T03:49:44;93752.09;;;1.25;100.00
8049;BME280;20935;42.660;23.342;2023-01-27T03:52:11;93758.78;;;1.49;100.00
8049;BME280;20935;42.660;23.342;2023-01-27T03:54:38;93761.91;;;1.28;100.00
8049;BME280;20935;42.660;23.342;2023-01-27T03:57:05;93755.69;;;1.10;100.00
8049;BME280;20935;42.660;23.342;2023-01-27T03:59:34;93750.66;;;1.02;100.00
8049;BME280;20935;42.660;23.342;2023-01-27T04:02:01;93755.63;;;1.36;100.00
8049;BME280;20935;42.660;23.342;2023-01-27T04:04:46;93774.06;;;1.36;100.00
8049;BME280;20935;42.660;23.342;2023-01-27T04:07:33;93794.06;;;1.37;100.00
8049;BME280;20935;42.660;23.342;2023-01-27T04:10:00;93798.78;;;1.25;100.00
8049;BME280;20935;42.660;23.342;2023-01-27T04:12:27;93818.81;;;1.29;100.00
8049;BME280;20935;42.660;23.342;2023-01-27T04:14:53;93826.38;;;1.05;100.00
8049;BME280;20935;42.660;23.342;2023-01-27T04:17:19;93833.94;;;1.06;100.00
8049;BME280;20935;42.660;23.342;2023-01-27T04:19:48;93836.72;;;1.43;100.00
8049;BME280;20935;42.660;23.342;2023-01-27T04:22:15;93834.28;;;1.61;100.00
8049;BME280;20935;42.660;23.342;2023-01-27T04:24:44;93822.53;;;1.55;100.00
8049;BME280;20935;42.660;23.342;2023-01-27T04:27:13;93831.38;;;1.39;100.00
8049;BME280;20935;42.660;23.342;2023-01-27T04:29:46;93839.03;;;1.48;100.00
8049;BME280;20935;42.660;23.342;2023-01-27T04:32:13;93844.53;;;1.10;100.00
8049;BME280;20935;42.660;23.342;2023-01-27T04:34:40;93847.38;;;1.24;100.00
8049;BME280;20935;42.660;23.342;2023-01-27T04:37:09;93847.19;;;1.39;100.00
8049;BME280;20935;42.660;23.342;2023-01-27T04:39:35;93845.47;;;1.51;100.00
8049;BME280;20935;42.660;23.342;2023-01-27T04:42:06;93852.53;;;1.73;100.00
8049;BME280;20935;42.660;23.342;2023-01-27T04:44:33;93851.22;;;1.60;100.00
8049;BME280;20935;42.660;23.342;2023-01-27T04:46:59;93846.19;;;1.77;100.00
8049;BME280;20935;42.660;23.342;2023-01-27T04:49:26;93834.66;;;1.93;100.00
8049;BME280;20935;42.660;23.342;2023-01-27T04:51:53;93850.88;;;1.91;100.00
8049;BME280;20935;42.660;23.342;2023-01-27T04:54:22;93856.19;;;1.95;100.00
8049;BME280;20935;42.660;23.342;2023-01-27T04:56:57;93857.66;;;1.92;100.00
8049;BME280;20935;42.660;23.342;2023-01-27T04:59:24;93861.09;;;1.96;100.00
8049;BME280;20935;42.660;23.342;2023-01-27T05:01:51;93858.06;;;1.34;100.00
8049;BME280;20935;42.660;23.342;2023-01-27T05:04:18;93859.72;;;1.20;100.00
8049;BME280;20935;42.660;23.342;2023-01-27T05:06:45;93863.38;;;0.85;100.00
8049;BME280;20935;42.660;23.342;2023-01-27T05:09:12;93863.19;;;1.24;100.00
8049;BME280;20935;42.660;23.342;2023-01-27T05:11:40;93858.28;;;1.22;100.00
8049;BME280;20935;42.660;23.342;2023-01-27T05:14:07;93851.75;;;1.39;100.00
8049;BME280;20935;42.660;23.342;2023-01-27T05:16:33;93838.94;;;1.71;100.00
8049;BME280;20935;42.660;23.342;2023-01-27T05:19:00;93855.25;;;1.80;100.00
8049;BME280;20935;42.660;23.342;2023-01-27T05:21:27;93841.75;;;1.25;100.00
8049;BME280;20935;42.660;23.342;2023-01-27T05:23:55;93853.06;;;1.26;100.00
8049;BME280;20935;42.660;23.342;2023-01-27T05:26:24;93843.31;;;1.30;100.00
8049;BME280;20935;42.660;23.342;2023-01-27T05:28:55;93834.09;;;1.17;100.00
8049;BME280;20935;42.660;23.342;2023-01-27T05:31:24;93829.25;;;0.96;100.00
8049;BME280;20935;42.660;23.342;2023-01-27T05:33:52;93822.13;;;0.70;100.00
8049;BME280;20935;42.660;23.342;2023-01-27T05:36:21;93828.47;;;0.92;100.00
8049;BME280;20935;42.660;23.342;2023-01-27T05:38:48;93828.44;;;1.15;100.00
8049;BME280;20935;42.660;23.342;2023-01-27T05:41:20;93827.25;;;1.38;100.00
8049;BME280;20935;42.660;23.342;2023-01-27T05:43:50;93813.47;;;1.22;100.00
8049;BME280;20935;42.660;23.342;2023-01-27T05:46:22;93810.19;;;1.32;100.00
8049;BME280;20935;42.660;23.342;2023-01-27T05:48:54;93825.22;;;1.28;100.00
8049;BME280;20935;42.660;23.342;2023-01-27T05:51:24;93823.47;;;1.39;100.00
8049;BME280;20935;42.660;23.342;2023-01-27T05:53:52;93827.41;;;1.23;100.00
8049;BME280;20935;42.660;23.342;2023-01-27T05:56:20;93834.16;;;1.50;100.00
8049;BME280;20935;42.660;23.342;2023-01-27T05:58:48;93843.44;;;1.40;100.00
8049;BME280;20935;42.660;23.342;2023-01-27T06:01:16;93839.41;;;1.47;100.00
8049;BME280;20935;42.660;23.342;2023-01-27T06:03:46;93843.75;;;1.35;100.00
8049;BME280;20935;42.660;23.342;2023-01-27T06:06:15;93840.94;;;1.21;100.00
8049;BME280;20935;42.660;23.342;2023-01-27T06:08:42;93826.97;;;1.47;100.00
8049;BME280;20935;42.660;23.342;2023-01-27T06:11:10;93828.59;;;1.29;100.00
8049;BME280;20935;42.660;23.342;2023-01-27T06:13:40;93830.38;;;1.21;100.00
8049;BME280;20935;42.660;23.342;2023-01-27T06:16:09;93832.97;;;1.48;100.00
8049;BME280;20935;42.660;23.342;2023-01-27T06:18:37;93824.00;;;1.52;100.00
8049;BME280;20935;42.660;23.342;2023-01-27T06:21:07;93830.03;;;1.53;100.00
8049;BME280;20935;42.660;23.342;2023-01-27T06:23:35;93842.84;;;1.51;100.00
8049;BME280;20935;42.660;23.342;2023-01-27T06:26:04;93851.47;;;1.77;100.00
8049;BME280;20935;42.660;23.342;2023-01-27T06:28:34;93846.41;;;1.65;100.00
8049;BME280;20935;42.660;23.342;2023-01-27T06:31:06;93847.53;;;1.64;100.00
8049;BME280;20935;42.660;23.342;2023-01-27T06:33:33;93842.44;;;1.78;100.00
8049;BME280;20935;42.660;23.342;2023-01-27T06:36:00;93838.56;;;1.39;100.00
8049;BME280;20935;42.660;23.342;2023-01-27T06:38:29;93840.81;;;1.40;100.00
8049;BME280;20935;42.660;23.342;2023-01-27T06:40:56;93848.31;;;1.68;100.00
8049;BME280;20935;42.660;23.342;2023-01-27T06:43:23;93847.22;;;1.69;100.00
8049;BME280;20935;42.660;23.342;2023-01-27T06:45:50;93847.44;;;1.57;100.00
8049;BME280;20935;42.660;23.342;2023-01-27T06:48:18;93846.63;;;1.53;100.00
8049;BME280;20935;42.660;23.342;2023-01-27T06:50:45;93860.09;;;1.45;100.00
8049;BME280;20935;42.660;23.342;2023-01-27T06:53:12;93854.81;;;1.45;100.00
8049;BME280;20935;42.660;23.342;2023-01-27T06:55:41;93861.81;;;1.63;100.00
8049;BME280;20935;42.660;23.342;2023-01-27T06:58:12;93852.88;;;1.71;100.00
8049;BME280;20935;42.660;23.342;2023-01-27T07:00:40;93866.03;;;1.38;100.00
8049;BME280;20935;42.660;23.342;2023-01-27T07:03:09;93869.69;;;1.60;100.00
8049;BME280;20935;42.660;23.342;2023-01-27T07:05:38;93864.91;;;1.69;100.00
8049;BME280;20935;42.660;23.342;2023-01-27T07:08:05;93874.44;;;1.47;100.00
8049;BME280;20935;42.660;23.342;2023-01-27T07:10:32;93874.75;;;1.42;100.00
8049;BME280;20935;42.660;23.342;2023-01-27T07:13:08;93878.34;;;1.86;100.00
8049;BME280;20935;42.660;23.342;2023-01-27T07:15:36;93872.63;;;1.81;100.00
8049;BME280;20935;42.660;23.342;2023-01-27T07:18:03;93868.03;;;1.74;100.00
8049;BME280;20935;42.660;23.342;2023-01-27T07:20:31;93864.28;;;1.49;100.00
8049;BME280;20935;42.660;23.342;2023-01-27T07:22:59;93865.00;;;1.76;100.00
8049;BME280;20935;42.660;23.342;2023-01-27T07:25:27;93863.44;;;2.01;100.00
8049;BME280;20935;42.660;23.342;2023-01-27T07:27:58;93863.94;;;1.80;100.00
8049;BME280;20935;42.660;23.342;2023-01-27T07:30:27;93862.94;;;1.92;100.00
8049;BME280;20935;42.660;23.342;2023-01-27T07:32:55;93861.09;;;1.96;100.00
8049;BME280;20935;42.660;23.342;2023-01-27T07:35:22;93859.94;;;1.94;100.00
8049;BME280;20935;42.660;23.342;2023-01-27T07:37:49;93870.75;;;2.15;100.00
8049;BME280;20935;42.660;23.342;2023-01-27T07:40:17;93864.59;;;2.07;100.00
8049;BME280;20935;42.660;23.342;2023-01-27T07:42:45;93880.38;;;2.00;100.00
8049;BME280;20935;42.660;23.342;2023-01-27T07:45:13;93876.81;;;1.85;100.00
8049;BME280;20935;42.660;23.342;2023-01-27T07:47:41;93878.56;;;1.74;100.00
8049;BME280;20935;42.660;23.342;2023-01-27T07:50:14;93872.34;;;1.89;100.00
8049;BME280;20935;42.660;23.342;2023-01-27T07:52:41;93869.84;;;2.04;100.00
8049;BME280;20935;42.660;23.342;2023-01-27T07:55:08;93874.28;;;1.96;100.00
8049;BME280;20935;42.660;23.342;2023-01-27T07:57:36;93878.59;;;2.11;100.00
8049;BME280;20935;42.660;23.342;2023-01-27T08:00:03;93881.97;;;2.08;100.00
8049;BME280;20935;42.660;23.342;2023-01-27T08:02:30;93879.09;;;2.20;100.00
8049;BME280;20935;42.660;23.342;2023-01-27T08:04:59;93864.81;;;2.25;100.00
8049;BME280;20935;42.660;23.342;2023-01-27T08:07:26;93872.72;;;1.92;100.00
8049;BME280;20935;42.660;23.342;2023-01-27T08:09:52;93866.75;;;1.95;100.00
8049;BME280;20935;42.660;23.342;2023-01-27T08:12:21;93863.88;;;2.07;100.00
8049;BME280;20935;42.660;23.342;2023-01-27T08:14:48;93872.06;;;1.98;100.00
8049;BME280;20935;42.660;23.342;2023-01-27T08:17:15;93870.00;;;2.14;100.00
8049;BME280;20935;42.660;23.342;2023-01-27T08:19:43;93867.97;;;2.04;100.00
8049;BME280;20935;42.660;23.342;2023-01-27T08:22:12;93864.41;;;2.60;100.00
8049;BME280;20935;42.660;23.342;2023-01-27T08:24:44;93875.34;;;2.21;100.00
8049;BME280;20935;42.660;23.342;2023-01-27T08:27:11;93872.53;;;2.07;100.00
8049;BME280;20935;42.660;23.342;2023-01-27T08:29:38;93878.84;;;1.99;100.00
8049;BME280;20935;42.660;23.342;2023-01-27T08:32:04;93878.69;;;1.85;100.00
8049;BME280;20935;42.660;23.342;2023-01-27T08:34:32;93874.66;;;1.65;100.00
8049;BME280;20935;42.660;23.342;2023-01-27T08:37:01;93879.22;;;1.68;100.00
8049;BME280;20935;42.660;23.342;2023-01-27T08:39:30;93887.59;;;1.73;100.00
8049;BME280;20935;42.660;23.342;2023-01-27T08:41:59;93890.16;;;1.66;100.00
8049;BME280;20935;42.660;23.342;2023-01-27T08:44:26;93895.00;;;1.64;100.00
8049;BME280;20935;42.660;23.342;2023-01-27T08:46:53;93893.31;;;2.09;100.00
8049;BME280;20935;42.660;23.342;2023-01-27T08:49:20;93883.78;;;2.34;100.00
8049;BME280;20935;42.660;23.342;2023-01-27T08:51:47;93891.53;;;2.20;100.00
8049;BME280;20935;42.660;23.342;2023-01-27T08:54:14;93895.00;;;2.27;100.00
8049;BME280;20935;42.660;23.342;2023-01-27T08:56:42;93889.63;;;2.17;100.00
8049;BME280;20935;42.660;23.342;2023-01-27T08:59:09;93884.81;;;2.63;100.00
8049;BME280;20935;42.660;23.342;2023-01-27T09:01:36;93885.25;;;2.31;100.00
8049;BME280;20935;42.660;23.342;2023-01-27T09:04:03;93883.16;;;2.11;100.00
8049;BME280;20935;42.660;23.342;2023-01-27T09:06:30;93888.44;;;2.48;100.00
8049;BME280;20935;42.660;23.342;2023-01-27T09:08:56;93888.06;;;2.46;100.00
8049;BME280;20935;42.660;23.342;2023-01-27T09:11:36;93874.47;;;2.47;100.00
8049;BME280;20935;42.660;23.342;2023-01-27T09:14:07;93879.97;;;2.31;100.00
8049;BME280;20935;42.660;23.342;2023-01-27T09:16:35;93884.94;;;2.03;100.00
8049;BME280;20935;42.660;23.342;2023-01-27T09:19:02;93887.56;;;2.36;100.00
8049;BME280;20935;42.660;23.342;2023-01-27T09:21:29;93879.41;;;1.82;100.00
8049;BME280;20935;42.660;23.342;2023-01-27T09:23:56;93878.59;;;2.45;100.00
8049;BME280;20935;42.660;23.342;2023-01-27T09:26:23;93877.28;;;2.28;100.00
8049;BME280;20935;42.660;23.342;2023-01-27T09:28:50;93872.75;;;2.25;100.00
8049;BME280;20935;42.660;23.342;2023-01-27T09:31:18;93879.34;;;2.08;100.00
8049;BME280;20935;42.660;23.342;2023-01-27T09:33:45;93862.97;;;1.96;100.00
8049;BME280;20935;42.660;23.342;2023-01-27T09:36:16;93857.63;;;2.22;100.00
8049;BME280;20935;42.660;23.342;2023-01-27T09:38:47;93854.13;;;2.11;100.00
8049;BME280;20935;42.660;23.342;2023-01-27T09:41:37;93850.44;;;1.85;100.00
8049;BME280;20935;42.660;23.342;2023-01-27T09:44:30;93846.94;;;2.11;100.00
8049;BME280;20935;42.660;23.342;2023-01-27T09:47:20;93851.06;;;2.09;100.00
8049;BME280;20935;42.660;23.342;2023-01-27T09:50:09;93845.47;;;2.14;100.00
8049;BME280;20935;42.660;23.342;2023-01-27T09:53:02;93843.03;;;1.98;100.00
8049;BME280;20935;42.660;23.342;2023-01-27T09:55:39;93838.09;;;1.97;100.00
8049;BME280;20935;42.660;23.342;2023-01-27T09:58:15;93830.50;;;1.92;100.00
8049;BME280;20935;42.660;23.342;2023-01-27T10:00:52;93826.28;;;2.20;100.00
8049;BME280;20935;42.660;23.342;2023-01-27T10:03:35;93819.25;;;1.95;100.00
8049;BME280;20935;42.660;23.342;2023-01-27T10:06:49;93822.75;;;2.06;100.00
8049;BME280;20935;42.660;23.342;2023-01-27T10:09:39;93823.47;;;1.69;100.00
8049;BME280;20935;42.660;23.342;2023-01-27T10:12:26;93822.59;;;1.58;100.00
8049;BME280;20935;42.660;23.342;2023-01-27T10:15:08;93814.97;;;1.83;100.00
8049;BME280;20935;42.660;23.342;2023-01-27T10:17:42;93825.97;;;1.92;100.00
8049;BME280;20935;42.660;23.342;2023-01-27T10:20:22;93829.28;;;1.82;100.00
8049;BME280;20935;42.660;23.342;2023-01-27T10:23:00;93815.66;;;1.80;100.00
8049;BME280;20935;42.660;23.342;2023-01-27T10:25:39;93819.53;;;1.86;100.00
8049;BME280;20935;42.660;23.342;2023-01-27T10:28:12;93823.75;;;1.94;100.00
8049;BME280;20935;42.660;23.342;2023-01-27T10:30:45;93817.31;;;1.58;100.00
8049;BME280;20935;42.660;23.342;2023-01-27T10:33:17;93812.56;;;1.71;100.00
8049;BME280;20935;42.660;23.342;2023-01-27T10:35:50;93812.38;;;1.86;100.00
8049;BME280;20935;42.660;23.342;2023-01-27T10:38:31;93817.16;;;1.77;100.00
8049;BME280;20935;42.660;23.342;2023-01-27T10:41:10;93816.66;;;1.68;100.00
8049;BME280;20935;42.660;23.342;2023-01-27T10:43:45;93816.38;;;1.77;100.00
8049;BME280;20935;42.660;23.342;2023-01-27T10:46:24;93807.78;;;1.83;100.00
8049;BME280;20935;42.660;23.342;2023-01-27T10:48:58;93803.16;;;1.73;100.00
8049;BME280;20935;42.660;23.342;2023-01-27T10:51:34;93807.75;;;1.80;100.00
8049;BME280;20935;42.660;23.342;2023-01-27T10:54:06;93806.31;;;1.86;100.00
8049;BME280;20935;42.660;23.342;2023-01-27T10:56:38;93807.56;;;1.62;100.00
8049;BME280;20935;42.660;23.342;2023-01-27T10:59:13;93805.47;;;1.78;100.00
8049;BME280;20935;42.660;23.342;2023-01-27T11:01:46;93814.59;;;1.84;100.00
8049;BME280;20935;42.660;23.342;2023-01-27T11:04:20;93805.59;;;1.89;100.00
8049;BME280;20935;42.660;23.342;2023-01-27T11:06:52;93809.34;;;1.88;100.00
8049;BME280;20935;42.660;23.342;2023-01-27T11:09:25;93806.25;;;1.79;100.00
8049;BME280;20935;42.660;23.342;2023-01-27T11:12:01;93809.03;;;1.60;100.00
8049;BME280;20935;42.660;23.342;2023-01-27T11:14:30;93803.53;;;1.75;100.00
8049;BME280;20935;42.660;23.342;2023-01-27T11:17:07;93799.22;;;1.94;100.00
8049;BME280;20935;42.660;23.342;2023-01-27T11:19:44;93789.97;;;1.73;100.00
8049;BME280;20935;42.660;23.342;2023-01-27T11:22:26;93794.19;;;1.48;100.00
8049;BME280;20935;42.660;23.342;2023-01-27T11:25:00;93786.28;;;1.48;100.00
8049;BME280;20935;42.660;23.342;2023-01-27T11:27:44;93803.50;;;1.72;100.00
8049;BME280;20935;42.660;23.342;2023-01-27T11:30:14;93787.91;;;1.60;100.00
8049;BME280;20935;42.660;23.342;2023-01-27T11:32:49;93782.09;;;1.77;100.00
8049;BME280;20935;42.660;23.342;2023-01-27T11:35:21;93780.16;;;1.40;100.00
8049;BME280;20935;42.660;23.342;2023-01-27T11:37:51;93782.22;;;1.54;100.00
8049;BME280;20935;42.660;23.342;2023-01-27T11:40:22;93786.75;;;1.91;100.00
8049;BME280;20935;42.660;23.342;2023-01-27T11:42:54;93781.63;;;1.71;100.00
8049;BME280;20935;42.660;23.342;2023-01-27T11:45:23;93787.13;;;1.89;100.00
8049;BME280;20935;42.660;23.342;2023-01-27T11:47:53;93776.41;;;1.75;100.00
8049;BME280;20935;42.660;23.342;2023-01-27T11:50:28;93774.94;;;1.77;100.00
8049;BME280;20935;42.660;23.342;2023-01-27T11:53:03;93772.19;;;1.67;100.00
8049;BME280;20935;42.660;23.342;2023-01-27T11:55:38;93776.69;;;1.66;100.00
8049;BME280;20935;42.660;23.342;2023-01-27T11:58:12;93778.34;;;1.78;100.00
8049;BME280;20935;42.660;23.342;2023-01-27T12:00:44;93776.34;;;1.71;100.00
8049;BME280;20935;42.660;23.342;2023-01-27T12:03:16;93776.78;;;1.43;100.00
8049;BME280;20935;42.660;23.342;2023-01-27T12:05:48;93769.06;;;1.58;100.00
8049;BME280;20935;42.660;23.342;2023-01-27T12:08:40;93770.75;;;1.76;100.00
8049;BME280;20935;42.660;23.342;2023-01-27T12:11:19;93774.09;;;2.07;100.00
8049;BME280;20935;42.660;23.342;2023-01-27T12:13:52;93773.69;;;2.05;100.00
8049;BME280;20935;42.660;23.342;2023-01-27T12:16:20;93775.00;;;1.84;100.00
8049;BME280;20935;42.660;23.342;2023-01-27T12:18:51;93780.81;;;2.01;100.00
8049;BME280;20935;42.660;23.342;2023-01-27T12:21:20;93781.03;;;2.22;100.00
8049;BME280;20935;42.660;23.342;2023-01-27T12:24:00;93785.22;;;2.26;100.00
8049;BME280;20935;42.660;23.342;2023-01-27T12:26:32;93782.44;;;2.12;100.00
8049;BME280;20935;42.660;23.342;2023-01-27T12:29:04;93784.22;;;2.42;100.00
8049;BME280;20935;42.660;23.342;2023-01-27T12:31:43;93778.25;;;2.52;100.00
8049;BME280;20935;42.660;23.342;2023-01-27T12:34:23;93785.66;;;1.95;100.00
8049;BME280;20935;42.660;23.342;2023-01-27T12:36:51;93780.50;;;2.06;100.00
8049;BME280;20935;42.660;23.342;2023-01-27T12:39:29;93785.41;;;2.07;100.00
8049;BME280;20935;42.660;23.342;2023-01-27T12:41:57;93789.22;;;2.10;100.00
8049;BME280;20935;42.660;23.342;2023-01-27T12:44:24;93787.34;;;1.77;100.00
8049;BME280;20935;42.660;23.342;2023-01-27T12:46:59;93795.22;;;2.07;100.00
8049;BME280;20935;42.660;23.342;2023-01-27T12:49:32;93782.94;;;2.25;100.00
8049;BME280;20935;42.660;23.342;2023-01-27T12:52:03;93775.72;;;2.18;100.00
8049;BME280;20935;42.660;23.342;2023-01-27T12:54:34;93779.50;;;2.65;100.00
8049;BME280;20935;42.660;23.342;2023-01-27T12:57:03;93782.22;;;2.31;100.00
8049;BME280;20935;42.660;23.342;2023-01-27T12:59:32;93772.63;;;2.09;100.00
8049;BME280;20935;42.660;23.342;2023-01-27T13:02:02;93770.19;;;2.34;100.00
8049;BME280;20935;42.660;23.342;2023-01-27T13:04:44;93775.50;;;2.38;100.00
8049;BME280;20935;42.660;23.342;2023-01-27T13:07:16;93771.63;;;2.28;100.00
8049;BME280;20935;42.660;23.342;2023-01-27T13:09:49;93780.13;;;2.51;100.00
8049;BME280;20935;42.660;23.342;2023-01-27T13:12:20;93773.16;;;2.29;100.00
8049;BME280;20935;42.660;23.342;2023-01-27T13:14:50;93771.50;;;2.54;100.00
8049;BME280;20935;42.660;23.342;2023-01-27T13:17:27;93775.09;;;2.35;100.00
8049;BME280;20935;42.660;23.342;2023-01-27T13:19:57;93769.75;;;2.28;100.00